• Join FlightAware (Why Join?)
  • Login
  • US Flag 
06:45AM EDT


 

Airport Tracker/Info


-or-


 

Live Flight TrackerFlight Track Log ✈ EGF4247 ✈ 08-Jun-2013 ✈ KBUF - KORD

Flight Track Log - Related Links

Times and Time Zones

All times are in EDT time to prevent confusion due to time zone crossing. See the EGF4247 flight status page for this flight to view local times or setup timezone preferences in your user account.

Time Position Orientation Groundspeed Altitude Reporting Facility
EDT Latitude Longitude Course Direction KTS MPH feet Rate Location/Type
03:51PM 42.9333 -78.7500 270° West 151 174 1,400  Level Buffalo TRACON
03:52PM 42.9000 -78.8000 228° Southwest 193 222 3,500 1,980 Climbing Buffalo TRACON
03:53PM 42.9000 -78.8667 270° West 239 275 5,000 1,800 Climbing Buffalo TRACON
03:53PM 42.8833 -78.8833 216° Southwest 220 253 5,600 2,460 Climbing Toronto Center
03:54PM 42.9500 -79.0603 270° West  Level FlightAware Approximate
03:54PM 42.9167 -78.9667 299° West 250 288 8,300  Level Toronto Center
03:55PM 42.9591 -79.1750 277° West  Level FlightAware Approximate
03:55PM 42.9333 -79.0667 283° West 260 299 10,300  Level Toronto Center
03:56PM 42.9667 -79.2899 270° West  Level FlightAware Approximate
03:56PM 42.9500 -79.1833 281° West 280 322 11,900  Level Toronto Center
03:57PM 42.9667 -79.4053 270° West  Level FlightAware Approximate
03:57PM 42.9500 -79.2833 270° West 310 357 13,600  Level Toronto Center
03:58PM 42.9667 -79.4000 281° West 330 380 13,900 780 Climbing Toronto Center
03:59PM 42.9667 -79.5500 270° West 360 414 15,200 1,320 Climbing Toronto Center
04:00PM 42.9667 -79.6833 270° West 360 414 16,600 1,440 Climbing Toronto Center
04:01PM 42.9833 -79.8167 280° West 350 403 18,100 1,380 Climbing Toronto Center
04:02PM 42.9833 -79.9500 270° West 350 403 19,400 1,440 Climbing Toronto Center
04:03PM 42.9833 -80.0667 270° West 350 403 21,000 1,680 Climbing Toronto Center
04:04PM 43.0000 -80.2000 280° West 350 403 22,800 1,740 Climbing Toronto Center
04:05PM 43.0000 -80.3333 270° West 340 391 24,500 1,620 Climbing Toronto Center
04:06PM 43.0000 -80.4500 270° West 330 380 26,100 1,680 Climbing Toronto Center
04:07PM 43.0167 -80.5833 280° West 320 368 27,900 1,620 Climbing Toronto Center
04:08PM 43.0167 -80.7000 270° West 310 357 29,400 1,020 Climbing Toronto Center
04:09PM 43.0000 -80.8167 259° West 320 368 30,000 300 Climbing Toronto Center
04:10PM 43.0167 -80.9500 280° West 350 403 30,000  Level Toronto Center
04:11PM 43.0167 -81.1167 270° West 370 426 30,000  Level Toronto Center
04:12PM 43.0167 -81.2500 270° West 380 437 30,000  Level Toronto Center
04:13PM 43.0167 -81.3833 270° West 370 426 30,000  Level Toronto Center
04:14PM 43.0167 -81.5333 270° West 370 426 30,000  Level Toronto Center
04:15PM 43.0167 -81.6667 270° West 370 426 30,000  Level Toronto Center
04:16PM 43.0167 -81.8000 270° West 370 426 30,000 60 Level Toronto Center
04:17PM 43.0000 -81.9333 260° West 370 426 30,200 540 Climbing Toronto Center
04:18PM 43.0000 -82.0667 270° West 360 414 31,100 900 Climbing Toronto Center
04:19PM 43.0000 -82.2167 270° West 350 403 32,000 420 Climbing Toronto Center
04:20PM 43.0000 -82.3500 270° West 350 403 32,000  Level Toronto Center
04:21PM 43.0000 -82.4833 270° West 350 403 32,000  Level Toronto Center
04:22PM 43.0167 -82.6000 281° West 350 403 32,000  Level Toronto Center
04:23PM 43.0394 -82.6739 293° West 338 389 32,000  Level Cleveland Center
04:24PM 43.1000 -82.7811 308° West 332 382 32,000  Level Cleveland Center
04:25PM 43.1686 -82.8944 310° West 354 407 32,000  Level Cleveland Center
04:26PM 43.2061 -82.9928 298° West 348 400 32,000  Level Cleveland Center
04:27PM 43.1867 -83.1203 258° West 320 368 32,000  Level Cleveland Center
04:28PM 43.1117 -83.2194 224° Southwest 315 362 32,000  Level Cleveland Center
04:29PM 43.0322 -83.3214 223° Southwest 353 406 32,000  Level Cleveland Center
04:30PM 42.9669 -83.4347 232° Southwest 378 435 32,000  Level Cleveland Center
04:31PM 42.9550 -83.5761 263° West 369 425 32,000  Level Cleveland Center
04:32PM 42.9617 -83.7125 274° West 361 415 32,000  Level Cleveland Center
04:33PM 42.9553 -83.8656 267° West 366 421 32,000  Level Cleveland Center
04:34PM 42.9411 -84.0008 262° West 366 421 32,000  Level Cleveland Center
04:35PM 42.9286 -84.1392 263° West 366 421 32,000  Level Cleveland Center
04:35PM 42.9228 -84.2036 263° West 366 421 32,000  Level Chicago Center
04:36PM 42.9094 -84.3411 263° West 367 422 32,000  Level Chicago Center
04:37PM 42.8953 -84.4786 262° West 367 422 32,000  Level Chicago Center
04:38PM 42.8819 -84.6158 262° West 367 422 32,000  Level Chicago Center
04:39PM 42.8664 -84.7531 261° West 368 423 32,000  Level Chicago Center
04:40PM 42.8522 -84.8917 262° West 369 425 32,000  Level Chicago Center
04:42PM 42.8381 -85.0292 262° West 367 422 32,000  Level Chicago Center
04:43PM 42.8192 -85.1978 261° West 375 432 32,000  Level Chicago Center
04:44PM 42.8050 -85.3358 262° West 369 425 32,000  Level Chicago Center
04:45PM 42.7897 -85.4767 262° West 373 429 32,000 -540 Level Chicago Center
04:46PM 42.7661 -85.6156 257° West 376 433 31,000 -1,860 Descending Chicago Center
04:47PM 42.7394 -85.7611 256° West 390 449 28,200 -2,760 Descending Chicago Center
04:48PM 42.7131 -85.9047 256° West 390 449 25,400 -2,760 Descending Chicago Center
04:49PM 42.6883 -86.0428 256° West 377 434 22,600 -2,400 Descending Chicago Center
04:50PM 42.6631 -86.1783 256° West 371 427 20,500 -1,860 Descending Chicago Center
04:51PM 42.6397 -86.3058 256° West 356 410 18,800 -1,800 Descending Chicago Center
04:52PM 42.6108 -86.4589 256° West 350 403 16,900 -1,680 Descending Chicago Center
04:53PM 42.5864 -86.5844 255° West 345 397 15,400 -1,560 Descending Chicago Center
04:54PM 42.5639 -86.7078 256° West 339 390 13,800 -1,560 Descending Chicago Center
04:55PM 42.5339 -86.8319 252° West 347 399 12,300 -1,320 Descending Chicago Center
04:56PM 42.5008 -86.9500 249° West 337 388 11,200 -1,080 Descending Chicago Center
04:57PM 42.4725 -87.0506 249° West 291 335 10,100 -1,020 Descending Chicago Center
04:58PM 42.4456 -87.1450 249° West 271 312 9,200 -720 Descending Chicago Center
04:59PM 42.4181 -87.2436 249° West 278 320 8,700 -840 Descending Chicago Center
05:00PM 42.3847 -87.3556 248° West 270 311 7,500 -900 Descending Chicago Center
05:01PM 42.3589 -87.4431 248° West 259 298 6,900 -300 Descending Chicago Center
05:02PM 42.3250 -87.5281 242° Southwest 257 296 7,000  Climbing Chicago Center
05:03PM 42.2647 -87.5986 221° Southwest 262 302 7,000 -360 Level Chicago Center
05:04PM 42.2119 -87.6614 221° Southwest 256 295 6,300 -720 Descending Chicago Center